Princeton Airport

CYDC · British Columbia, Canada

METAR history CYDC · Princeton Airport

Below you see METARs of the last few days. Select a year to browse through older METARs, from the year 2007 onwards.

July 14, 2024

Time Code Weather Temp. Visibility Ceiling Wind METAR/SPECI
16:00
V
32 °C 20 mi - 300° 300° 8 - 17 kt METAR CYDC 142300Z 30008G17KT 260V330 20SM FEW140 32/02 A2996 RMK AC1 AC TR SLP129 DENSITY ALT 4700FT
15:00
V
32 °C 25 mi - 310° 310° 9 - 17 kt METAR CYDC 142200Z 31009G17KT 240V350 25SM FEW140 FEW160 32/01 A2996 RMK AC1AC1 AC TR AC TR SLP130 DENSITY ALT 4700FT
14:00
V
32 °C 25 mi - 310° 310° 8 - 16 kt METAR CYDC 142100Z 31008G16KT 190V340 25SM FEW140 32/00 A2997 RMK AC1 AC TR SLP131 DENSITY ALT 4700FT
13:00
V
31 °C 25 mi - 300° 300° 5 - 16 kt METAR CYDC 142000Z 30005G16KT 220V350 25SM SKC 31/01 A2997 RMK SLP131 DENSITY ALT 4700FT
12:00
V
30 °C 25 mi - 080° 080° 2 kt METAR CYDC 141900Z 08002KT 25SM SKC 30/06 A2998 RMK SLP134 DENSITY ALT 4500FT
11:00
V
28 °C 25 mi - 110° 110° 4 kt METAR CYDC 141800Z 11004KT 040V160 25SM SKC 28/06 A3000 RMK SLP140 DENSITY ALT 4200FT
10:00
V
23 °C 25 mi - 360° 360° 0 kt METAR CYDC 141700Z 00000KT 25SM SKC 23/07 A3002 RMK FU SLP150 DENSITY ALT 3700FT
09:00
V
20 °C 25 mi - 360° 360° 0 kt METAR CYDC 141600Z 00000KT 25SM SKC 20/06 A3005 RMK SLP159 DENSITY ALT 3300FT
08:00
V
17 °C 25 mi - 360° 360° 0 kt METAR CYDC 141500Z 00000KT 25SM SKC 17/05 A3007 RMK SLP164 DENSITY ALT 3000FT
07:00
V
14 °C 25 mi - 360° 360° 0 kt METAR CYDC 141400Z 00000KT 25SM SKC 14/05 A3007 RMK SLP167 DENSITY ALT 2600FT
06:00
V
11 °C 25 mi - 360° 360° 0 kt METAR CYDC 141300Z 00000KT 25SM SKC 11/03 A3006 RMK SLP166

July 13, 2024

Time Code Weather Temp. Visibility Ceiling Wind METAR/SPECI
18:00
V
33 °C 25 mi - 280° 280° 9 - 19 kt METAR CYDC 140100Z 28009G19KT 250V340 25SM FEW075 33/03 A2993 RMK AC1 AC TR LAST STFD OBS/ NEXT 14 1300Z SLP118 DENSITY ALT 4900FT
17:00
V
33 °C 25 mi - 280° 280° 12 - 23 kt METAR CYDC 140000Z 28012G23KT 260V320 25SM FEW065 FEW075 33/04 A2993 RMK CU1AC1 CU TR AC TR SLP119 DENSITY ALT 4900FT
16:00
V
35 °C 25 mi - Var Var 8 - 17 kt METAR CYDC 132300Z VRB08G17KT 25SM FEW065 35/04 A2994 RMK CF1 SLP119 DENSITY ALT 5100FT
15:00
V
34 °C 25 mi - 310° 310° 6 - 17 kt METAR CYDC 132200Z 31006G17KT 260V360 25SM FEW065 FEW260 34/03 A2995 RMK CF1CI1 CF TR CI TR SLP121 DENSITY ALT 5000FT
14:00
V
33 °C 25 mi - 060° 060° 5 kt METAR CYDC 132100Z 06005KT 040V150 25SM FEW065 FEW260 33/07 A2996 RMK CF1CI1 CF TR CI TR SLP124 DENSITY ALT 4900FT
13:00
V
32 °C 25 mi - 160° 160° 5 kt METAR CYDC 132000Z 16005KT 060V230 25SM FEW065 FEW260 32/08 A2997 RMK CF1CI1 CF TR CI TR CONTRAILS SLP129 DENSITY ALT 4700FT
12:00
V
30 °C 25 mi - 360° 360° 0 kt METAR CYDC 131900Z 00000KT 25SM FEW065 FEW260 30/08 A2999 RMK CF1CI1 CF TR CONTRAILS SLP136 DENSITY ALT 4500FT
11:00
V
28 °C 25 mi - 360° 360° 0 kt METAR CYDC 131800Z 00000KT 25SM FEW065 FEW260 FEW280 FEW300 28/09 A3002 RMK CF1CI1CI1CC1 CF TR CC TR CONTRAILS SLP143 DENSITY ALT 4200FT
10:00
V
24 °C 25 mi - 180° 180° 2 kt METAR CYDC 131700Z 18002KT 25SM FEW260 FEW280 SCT300 24/10 A3004 RMK CC1CI1CC1 CONTRAILS SLP154 DENSITY ALT 3800FT
09:00
V
21 °C 25 mi - 360° 360° 0 kt METAR CYDC 131600Z 00000KT 25SM FEW260 FEW280 21/09 A3006 RMK CC1CC1 CONTRAILS SLP162 DENSITY ALT 3400FT
08:00
V
18 °C 25 mi - Var Var 2 kt METAR CYDC 131500Z VRB02KT 25SM FEW260 FEW280 18/09 A3008 RMK CI1CC1 CI TR CC TR CONTRAILS SLP169 DENSITY ALT 3000FT
07:00
V
16 °C 25 mi - Var Var 3 kt METAR CYDC 131400Z VRB03KT 25SM FEW260 16/08 A3008 RMK CC1 CC TR CONTRAILS SLP171 DENSITY ALT 2800FT
06:00
V
13 °C 25 mi - 360° 360° 0 kt METAR CYDC 131300Z 00000KT 25SM FEW260 13/07 A3008 RMK CC1 CC TR CONTRAILS SLP171

July 12, 2024

Time Code Weather Temp. Visibility Ceiling Wind METAR/SPECI
18:00
V
33 °C 25 mi - 020° 020° 5 kt METAR CYDC 130100Z 02005KT 340V060 25SM FEW070 FEW080 FEW260 33/06 A2996 RMK CU2AC1CI1 AC TR CI TR LENT/ LAST STFD OBS/ NEXT 13 1300Z SLP132 DENSITY ALT 4900FT
17:00
V
33 °C 25 mi - 060° 060° 8 kt METAR CYDC 130000Z 06008KT 340V070 25SM SCT070 SCT260 33/06 A2997 RMK CU3CC1 CC TR SLP135 DENSITY ALT 4900FT
16:32
V
33 °C 25 mi - 360° 360° 7 kt SPECI CYDC 122332Z 36007KT 340V070 25SM FEW070 33/05 A2998 RMK CU2 WSHFT 2326 SLP138 DENSITY ALT 4800FT
16:00
V
32 °C 25 mi - Var Var 2 kt METAR CYDC 122300Z VRB02KT 25SM SCT070 32/06 A2999 RMK CU3 SLP142 DENSITY ALT 4700FT
15:00
V
33 °C 25 mi - 050° 050° 4 kt METAR CYDC 122200Z 05004KT 340V100 25SM FEW070 33/06 A3001 RMK CU2 SLP146 DENSITY ALT 4800FT
14:00
V
32 °C 25 mi - 080° 080° 6 kt METAR CYDC 122100Z 08006KT 030V120 25SM FEW070 32/06 A3003 RMK CU2 SLP154 DENSITY ALT 4600FT
13:00
V
30 °C 25 mi - 150° 150° 3 kt METAR CYDC 122000Z 15003KT 060V220 25SM FEW070 30/07 A3006 RMK CU1 SLP164 DENSITY ALT 4400FT
12:00
V
28 °C 25 mi - 120° 120° 4 kt METAR CYDC 121900Z 12004KT 040V160 25SM FEW065 28/08 A3008 RMK CF1 CF TR SLP172 DENSITY ALT 4200FT
11:00
V
25 °C 25 mi - Var Var 3 kt METAR CYDC 121800Z VRB03KT 25SM FEW065 25/09 A3011 RMK CF1 CF TR SLP182 DENSITY ALT 3800FT
10:00
V
22 °C 25 mi - 360° 360° 0 kt METAR CYDC 121700Z 00000KT 25SM SKC 22/08 A3014 RMK SLP193 DENSITY ALT 3500FT
09:00
V
19 °C 25 mi - Var Var 2 kt METAR CYDC 121600Z VRB02KT 25SM FEW260 19/07 A3016 RMK CC1 CC TR SLP199 DENSITY ALT 3100FT
08:00
V
17 °C 25 mi - Var Var 2 kt METAR CYDC 121500Z VRB02KT 25SM SKC 17/07 A3017 RMK SLP204 DENSITY ALT 2800FT
07:00
V
14 °C 25 mi - 360° 360° 0 kt METAR CYDC 121400Z 00000KT 25SM SKC 14/07 A3018 RMK SLP206
06:00
V
11 °C 25 mi - 360° 360° 0 kt METAR CYDC 121300Z 00000KT 25SM SKC 11/06 A3016 RMK SLP201
Report a change